createdAt,value
2023-03-29T00:02:30.094Z,4.30
2023-03-29T00:04:57.583Z,4.30
2023-03-29T00:07:26.084Z,4.30
2023-03-29T00:09:53.003Z,4.30
2023-03-29T00:12:19.770Z,4.40
2023-03-29T00:14:46.416Z,4.40
2023-03-29T00:17:13.128Z,4.40
2023-03-29T00:19:39.863Z,4.40
2023-03-29T00:22:06.519Z,4.40
2023-03-29T00:24:33.242Z,4.50
2023-03-29T00:26:59.886Z,4.50
2023-03-29T00:29:26.556Z,4.50
2023-03-29T00:31:54.269Z,4.60
2023-03-29T00:34:20.976Z,4.60
2023-03-29T00:36:50.702Z,4.60
2023-03-29T00:39:18.088Z,4.60
2023-03-29T00:41:48.783Z,4.70
2023-03-29T00:44:34.099Z,4.70
2023-03-29T00:47:00.686Z,4.70
2023-03-29T00:49:27.402Z,4.70
2023-03-29T00:51:53.980Z,4.80
2023-03-29T00:54:20.649Z,4.80
2023-03-29T00:56:50.121Z,5.00
2023-03-29T00:59:22.404Z,4.90
2023-03-29T01:01:54.316Z,4.90
2023-03-29T01:04:29.339Z,5.00
2023-03-29T01:07:18.622Z,4.90
2023-03-29T01:09:47.921Z,5.00
2023-03-29T01:12:20.863Z,5.00
2023-03-29T01:14:54.300Z,4.90
2023-03-29T01:17:25.526Z,5.00
2023-03-29T01:19:58.079Z,4.90
2023-03-29T01:22:38.481Z,4.90
2023-03-29T01:25:05.286Z,5.00
2023-03-29T01:27:55.390Z,4.90
2023-03-29T01:30:40.627Z,4.90
2023-03-29T01:33:12.043Z,4.90
2023-03-29T01:35:44.644Z,4.90
2023-03-29T01:38:23.531Z,4.90
2023-03-29T01:40:50.251Z,4.90
2023-03-29T01:43:22.745Z,4.90
2023-03-29T01:46:10.241Z,4.90
2023-03-29T01:48:48.193Z,4.90
2023-03-29T01:51:33.000Z,4.90
2023-03-29T01:54:08.886Z,4.80
2023-03-29T01:56:39.763Z,4.80
2023-03-29T01:59:08.311Z,4.80
2023-03-29T02:01:38.468Z,4.90
2023-03-29T02:04:07.192Z,4.90
2023-03-29T02:06:34.099Z,4.90
2023-03-29T02:09:00.966Z,4.90
2023-03-29T02:11:29.222Z,4.90
2023-03-29T02:13:59.109Z,4.90
2023-03-29T02:16:25.737Z,4.80
2023-03-29T02:18:54.160Z,4.90
2023-03-29T02:21:30.849Z,4.90
2023-03-29T02:23:59.597Z,4.80
2023-03-29T02:26:26.250Z,4.80
2023-03-29T02:28:53.342Z,4.80
2023-03-29T02:31:30.253Z,4.80
2023-03-29T02:33:59.107Z,4.80
2023-03-29T02:36:29.361Z,4.70
2023-03-29T02:38:56.817Z,4.70
2023-03-29T02:41:24.385Z,4.70
2023-03-29T02:43:51.252Z,4.70
2023-03-29T02:46:18.376Z,4.70
2023-03-29T02:48:46.710Z,4.70
2023-03-29T02:51:19.911Z,4.70
2023-03-29T02:54:19.500Z,4.60
2023-03-29T02:56:48.085Z,4.60
2023-03-29T02:59:15.743Z,4.50
2023-03-29T03:01:45.533Z,4.50
2023-03-29T03:04:12.330Z,4.50
2023-03-29T03:06:39.734Z,4.50
2023-03-29T03:09:06.871Z,4.50
2023-03-29T03:11:33.806Z,4.40
2023-03-29T03:14:00.895Z,4.30
2023-03-29T03:16:28.081Z,4.30
2023-03-29T03:18:55.673Z,4.40
2023-03-29T03:21:22.650Z,4.40
2023-03-29T03:23:49.365Z,4.30
2023-03-29T03:26:18.702Z,4.30
2023-03-29T03:28:48.319Z,4.30
2023-03-29T03:31:14.983Z,4.30
2023-03-29T03:33:41.754Z,4.30
2023-03-29T03:36:10.132Z,4.30
2023-03-29T03:38:37.873Z,4.30
2023-03-29T03:41:05.583Z,4.30
2023-03-29T03:43:32.491Z,4.40
2023-03-29T03:45:59.247Z,4.30
2023-03-29T03:48:25.872Z,4.30
2023-03-29T03:50:53.590Z,4.30
2023-03-29T03:53:21.237Z,4.30
2023-03-29T03:55:51.641Z,4.30
2023-03-29T03:58:18.626Z,4.30
2023-03-29T04:00:47.876Z,4.30
2023-03-29T04:03:15.519Z,4.30
2023-03-29T04:05:44.518Z,4.20
2023-03-29T04:08:12.503Z,4.20
2023-03-29T04:10:39.553Z,4.20
2023-03-29T04:13:06.564Z,4.10
2023-03-29T04:15:34.147Z,4.20
2023-03-29T04:18:00.974Z,4.20
2023-03-29T04:20:28.118Z,4.20
2023-03-29T04:22:54.698Z,4.20
2023-03-29T04:25:22.288Z,4.30
2023-03-29T04:27:49.898Z,4.20
2023-03-29T04:30:16.974Z,4.20
2023-03-29T04:32:43.649Z,4.20
2023-03-29T04:35:10.531Z,4.20
2023-03-29T04:37:40.280Z,4.10
2023-03-29T04:40:09.770Z,4.20
2023-03-29T04:42:37.623Z,4.20
2023-03-29T04:45:06.920Z,4.20
2023-03-29T04:47:36.317Z,4.10
2023-03-29T04:50:03.362Z,4.10
2023-03-29T04:52:33.125Z,4.10
2023-03-29T04:55:00.344Z,4.20
2023-03-29T04:57:27.441Z,4.10
2023-03-29T04:59:54.396Z,4.10
2023-03-29T05:02:21.787Z,4.20
2023-03-29T05:04:48.458Z,4.20
2023-03-29T05:07:15.348Z,4.30
2023-03-29T05:09:42.567Z,4.30
2023-03-29T05:12:09.196Z,4.30
2023-03-29T05:14:36.307Z,4.30
2023-03-29T05:17:06.375Z,4.40
2023-03-29T05:19:33.644Z,4.40
2023-03-29T05:22:00.746Z,4.40
2023-03-29T05:24:27.442Z,4.40
2023-03-29T05:26:54.376Z,4.40
2023-03-29T05:29:21.625Z,4.40
2023-03-29T05:31:48.437Z,4.50
2023-03-29T05:34:15.052Z,4.50
2023-03-29T05:36:42.890Z,4.40
2023-03-29T05:39:10.866Z,4.40
2023-03-29T05:41:37.901Z,4.50
2023-03-29T05:44:04.524Z,4.50
2023-03-29T05:46:31.511Z,4.60
2023-03-29T05:48:58.134Z,4.70
2023-03-29T05:51:24.754Z,4.60
2023-03-29T05:53:52.036Z,4.60
2023-03-29T05:56:19.095Z,4.60
2023-03-29T05:58:49.447Z,4.70
2023-03-29T06:01:17.912Z,4.80
2023-03-29T06:03:46.149Z,4.70
2023-03-29T06:06:16.211Z,4.80
2023-03-29T06:08:43.245Z,4.70
2023-03-29T06:11:11.104Z,4.90
2023-03-29T06:13:38.974Z,4.90
2023-03-29T06:16:06.346Z,4.90
2023-03-29T06:18:33.182Z,4.90
2023-03-29T06:21:01.997Z,5.00
2023-03-29T06:23:29.172Z,5.10
2023-03-29T06:25:56.250Z,5.20
2023-03-29T06:28:23.939Z,5.20
2023-03-29T06:30:50.808Z,5.40
2023-03-29T06:33:18.566Z,5.50
2023-03-29T06:35:46.563Z,5.50
2023-03-29T06:38:13.657Z,5.50
2023-03-29T06:40:40.544Z,5.50
2023-03-29T06:43:07.279Z,5.70
2023-03-29T06:45:35.284Z,5.80
2023-03-29T06:48:03.206Z,5.90
2023-03-29T06:50:30.384Z,6.00
2023-03-29T06:52:57.299Z,6.20
2023-03-29T06:55:24.341Z,6.10
2023-03-29T06:57:51.004Z,6.10
2023-03-29T07:00:19.147Z,6.10
2023-03-29T07:02:46.495Z,6.10
2023-03-29T07:05:13.855Z,6.10
2023-03-29T07:07:56.609Z,6.20
2023-03-29T07:10:25.926Z,6.10
2023-03-29T07:12:52.844Z,6.10
2023-03-29T07:15:21.362Z,6.00
2023-03-29T07:17:48.636Z,6.00
2023-03-29T07:20:15.800Z,6.20
2023-03-29T07:22:43.828Z,6.30
2023-03-29T07:25:12.237Z,6.50
2023-03-29T07:27:40.746Z,6.70
2023-03-29T07:30:11.204Z,7.00
2023-03-29T07:32:39.056Z,6.90
2023-03-29T07:35:06.734Z,7.10
2023-03-29T07:37:34.248Z,7.20
2023-03-29T07:40:03.386Z,6.90
2023-03-29T07:42:30.244Z,7.10
2023-03-29T07:44:58.120Z,7.00
2023-03-29T07:47:24.942Z,6.90
2023-03-29T07:49:51.529Z,7.10
2023-03-29T07:52:18.611Z,7.10
2023-03-29T07:54:45.238Z,7.20
2023-03-29T07:57:12.331Z,7.30
2023-03-29T07:59:39.156Z,7.30
2023-03-29T08:02:06.600Z,7.40
2023-03-29T08:04:33.362Z,7.40
2023-03-29T08:07:00.030Z,7.40
2023-03-29T08:09:27.237Z,7.60
2023-03-29T08:11:53.870Z,7.60
2023-03-29T08:14:21.854Z,7.70
2023-03-29T08:16:48.459Z,7.80
2023-03-29T08:19:16.466Z,8.30
2023-03-29T08:21:43.161Z,8.60
2023-03-29T08:24:09.765Z,9.00
2023-03-29T08:26:36.372Z,8.70
2023-03-29T08:29:03.031Z,8.40
2023-03-29T08:31:29.704Z,8.30
2023-03-29T08:33:56.377Z,8.20
2023-03-29T08:36:22.936Z,8.30
2023-03-29T08:38:50.558Z,8.50
2023-03-29T08:41:26.255Z,8.90
2023-03-29T08:44:04.751Z,9.40
2023-03-29T08:46:44.243Z,9.90
2023-03-29T08:49:12.311Z,10.10
2023-03-29T08:51:49.843Z,10.40
2023-03-29T08:54:21.816Z,10.50
2023-03-29T08:56:49.948Z,10.70
2023-03-29T08:59:27.410Z,11.20
2023-03-29T09:01:55.471Z,11.60
2023-03-29T09:04:27.413Z,12.10
2023-03-29T09:06:57.370Z,12.40
2023-03-29T09:09:28.559Z,12.30
2023-03-29T09:11:56.495Z,11.60
2023-03-29T09:14:23.077Z,11.10
2023-03-29T09:16:49.678Z,10.80
2023-03-29T09:19:16.239Z,10.50
2023-03-29T09:21:43.305Z,10.70
2023-03-29T09:24:10.112Z,11.10
2023-03-29T09:26:47.791Z,11.80
2023-03-29T09:29:14.452Z,12.30
2023-03-29T09:31:44.779Z,12.50
2023-03-29T09:34:21.091Z,12.70
2023-03-29T09:36:55.176Z,12.80
2023-03-29T09:39:22.630Z,13.40
2023-03-29T09:41:51.746Z,14.00
2023-03-29T09:44:31.754Z,14.00
2023-03-29T09:47:02.415Z,13.50
2023-03-29T09:49:31.449Z,13.40
2023-03-29T09:52:01.711Z,14.00
2023-03-29T09:54:28.698Z,15.40
2023-03-29T09:56:55.470Z,16.10
2023-03-29T09:59:22.063Z,16.20
2023-03-29T10:01:48.795Z,17.00
2023-03-29T10:04:16.786Z,16.00
2023-03-29T10:06:47.463Z,15.10
2023-03-29T10:09:15.136Z,15.70
2023-03-29T10:11:43.159Z,16.90
2023-03-29T10:14:14.318Z,17.40
2023-03-29T10:16:42.288Z,17.30
2023-03-29T10:19:17.157Z,16.50
2023-03-29T10:21:43.789Z,16.70
2023-03-29T10:24:10.403Z,17.50
2023-03-29T10:26:39.028Z,19.60
2023-03-29T10:29:07.156Z,21.20
2023-03-29T10:31:36.608Z,21.20
2023-03-29T10:34:05.090Z,19.90
2023-03-29T10:36:31.876Z,19.90
2023-03-29T10:38:59.932Z,19.00
2023-03-29T10:41:27.241Z,19.00
2023-03-29T10:43:54.223Z,20.80
2023-03-29T10:46:28.761Z,21.40
2023-03-29T10:49:05.242Z,20.40
2023-03-29T10:51:32.490Z,18.20
2023-03-29T10:53:59.514Z,16.70
2023-03-29T10:56:37.053Z,15.70
2023-03-29T10:59:10.066Z,14.90
2023-03-29T11:01:48.168Z,13.80
2023-03-29T11:04:20.752Z,13.10
2023-03-29T11:07:07.871Z,12.90
2023-03-29T11:09:34.445Z,13.10
2023-03-29T11:12:15.503Z,13.60
2023-03-29T11:15:05.555Z,13.70
2023-03-29T11:17:32.532Z,14.30
2023-03-29T11:19:59.139Z,14.30
2023-03-29T11:22:34.003Z,14.00
2023-03-29T11:25:33.385Z,13.60
2023-03-29T11:28:04.590Z,13.40
2023-03-29T11:30:45.957Z,13.30
2023-03-29T11:33:15.357Z,12.90
2023-03-29T11:36:00.943Z,12.80
2023-03-29T11:38:46.533Z,15.30
2023-03-29T11:41:23.205Z,17.40
2023-03-29T11:44:10.064Z,19.30
2023-03-29T11:46:40.034Z,20.00
2023-03-29T11:49:18.343Z,17.90
2023-03-29T11:51:48.805Z,16.70
2023-03-29T11:54:17.956Z,15.50
2023-03-29T11:56:50.157Z,15.30
2023-03-29T11:59:36.583Z,15.60
2023-03-29T12:02:18.364Z,15.50
2023-03-29T12:04:48.382Z,15.40
2023-03-29T12:07:14.971Z,15.10
2023-03-29T12:09:47.807Z,14.90
2023-03-29T12:12:21.240Z,14.70
2023-03-29T12:15:07.217Z,14.60
2023-03-29T12:17:43.756Z,14.70
2023-03-29T12:20:10.489Z,14.30
2023-03-29T12:22:37.329Z,14.30
2023-03-29T12:25:04.671Z,13.90
2023-03-29T12:27:37.374Z,13.70
2023-03-29T12:30:23.426Z,13.80
2023-03-29T12:33:25.732Z,13.50
2023-03-29T12:36:02.550Z,13.40
2023-03-29T12:38:31.071Z,13.40
2023-03-29T12:40:59.921Z,13.20
2023-03-29T12:43:28.070Z,13.00
2023-03-29T12:45:57.022Z,12.60
2023-03-29T12:48:25.724Z,12.40
2023-03-29T12:50:53.556Z,12.40
2023-03-29T12:53:25.033Z,12.00
2023-03-29T12:56:09.619Z,12.00
2023-03-29T12:58:39.429Z,12.10
2023-03-29T13:01:10.554Z,12.20
2023-03-29T13:03:39.973Z,12.10
2023-03-29T13:06:08.536Z,12.20
2023-03-29T13:08:36.364Z,12.20
2023-03-29T13:11:04.108Z,12.10
2023-03-29T13:13:37.870Z,12.00
2023-03-29T13:16:11.893Z,12.00
2023-03-29T13:18:48.383Z,12.00
2023-03-29T13:21:41.405Z,11.80
2023-03-29T13:24:14.055Z,11.90
2023-03-29T13:26:43.797Z,12.20
2023-03-29T13:29:28.948Z,12.10
2023-03-29T13:31:58.529Z,12.10
2023-03-29T13:34:43.911Z,12.20
2023-03-29T13:37:29.246Z,12.40
2023-03-29T13:39:56.190Z,12.40
2023-03-29T13:42:35.202Z,12.40
2023-03-29T13:45:24.825Z,12.20
2023-03-29T13:48:05.133Z,12.20
2023-03-29T13:50:37.183Z,12.30
2023-03-29T13:53:09.999Z,12.50
2023-03-29T13:55:39.825Z,12.60
2023-03-29T13:58:10.650Z,12.40
2023-03-29T14:00:44.483Z,12.30
2023-03-29T14:03:13.503Z,12.30
2023-03-29T14:05:42.104Z,12.50
2023-03-29T14:08:08.854Z,12.40
2023-03-29T14:10:39.047Z,12.40
2023-03-29T14:13:05.877Z,12.30
2023-03-29T14:15:52.027Z,12.20
2023-03-29T14:18:21.132Z,12.10
2023-03-29T14:20:49.117Z,11.90
2023-03-29T14:23:19.549Z,11.70
2023-03-29T14:25:46.639Z,11.70
2023-03-29T14:28:19.050Z,11.70
2023-03-29T14:30:47.151Z,11.70
2023-03-29T14:33:14.180Z,11.60
2023-03-29T14:35:41.034Z,11.60
2023-03-29T14:38:11.193Z,11.60
2023-03-29T14:40:37.788Z,11.90
2023-03-29T14:43:06.713Z,12.00
2023-03-29T14:45:33.496Z,12.00
2023-03-29T14:48:00.467Z,12.10
2023-03-29T14:50:28.871Z,12.00
2023-03-29T14:52:56.797Z,12.10
2023-03-29T14:55:24.008Z,12.10
2023-03-29T14:57:53.179Z,12.10
2023-03-29T15:00:26.763Z,11.90
2023-03-29T15:02:54.856Z,11.80
2023-03-29T15:05:28.644Z,11.80
2023-03-29T15:07:56.249Z,11.80
2023-03-29T15:10:23.258Z,11.60
2023-03-29T15:12:50.619Z,11.70
2023-03-29T15:15:17.448Z,11.60
2023-03-29T15:17:51.758Z,11.60
2023-03-29T15:20:23.241Z,11.70
2023-03-29T15:22:54.101Z,11.60
2023-03-29T15:25:21.116Z,11.60
2023-03-29T15:27:50.075Z,11.70
2023-03-29T15:30:17.665Z,11.60
2023-03-29T15:32:44.700Z,11.60
2023-03-29T15:35:23.255Z,11.70
2023-03-29T15:37:51.375Z,11.70
2023-03-29T15:40:23.255Z,11.90
2023-03-29T15:42:50.266Z,12.10
2023-03-29T15:45:17.764Z,12.10
2023-03-29T15:47:44.426Z,12.10
2023-03-29T15:50:11.438Z,12.20
2023-03-29T15:52:38.544Z,12.10
2023-03-29T15:55:05.403Z,12.00
2023-03-29T15:57:32.253Z,11.90
2023-03-29T15:59:59.053Z,11.90
2023-03-29T16:02:25.945Z,11.90
2023-03-29T16:04:53.391Z,11.80
2023-03-29T16:07:20.951Z,11.80
2023-03-29T16:09:47.665Z,11.90
2023-03-29T16:12:16.279Z,11.90
2023-03-29T16:14:43.406Z,11.80
2023-03-29T16:17:10.054Z,11.80
2023-03-29T16:19:36.730Z,11.90
2023-03-29T16:22:07.022Z,11.90
2023-03-29T16:24:34.807Z,11.90
2023-03-29T16:27:01.839Z,12.10
2023-03-29T16:29:28.482Z,12.10
2023-03-29T16:31:55.190Z,12.00
2023-03-29T16:34:22.694Z,11.90
2023-03-29T16:36:49.783Z,11.80
2023-03-29T16:39:17.301Z,11.80
2023-03-29T16:41:45.162Z,11.80
2023-03-29T16:44:21.773Z,11.70
2023-03-29T16:46:50.440Z,11.70
2023-03-29T16:49:18.213Z,11.70
2023-03-29T16:51:48.279Z,11.70
2023-03-29T16:54:15.226Z,11.60
2023-03-29T16:56:41.861Z,11.60
2023-03-29T16:59:09.289Z,11.50
2023-03-29T17:01:36.573Z,11.50
2023-03-29T17:04:04.034Z,11.50
2023-03-29T17:06:32.488Z,11.60
2023-03-29T17:08:59.440Z,11.50
2023-03-29T17:11:26.869Z,11.50
2023-03-29T17:13:53.990Z,11.50
2023-03-29T17:16:21.030Z,11.60
2023-03-29T17:18:47.872Z,11.60
2023-03-29T17:21:14.584Z,11.60
2023-03-29T17:23:41.358Z,12.90
2023-03-29T17:26:08.471Z,11.60
2023-03-29T17:28:35.812Z,11.60
2023-03-29T17:31:08.494Z,11.60
2023-03-29T17:33:36.030Z,11.60
2023-03-29T17:36:04.040Z,11.50
2023-03-29T17:38:30.955Z,11.50
2023-03-29T17:40:57.582Z,11.50
2023-03-29T17:43:24.258Z,11.60
2023-03-29T17:45:51.660Z,11.50
2023-03-29T17:48:19.318Z,11.50
2023-03-29T17:50:45.929Z,11.50
2023-03-29T17:53:13.328Z,11.50
2023-03-29T17:55:40.969Z,11.50
2023-03-29T17:58:07.843Z,11.50
2023-03-29T18:00:34.561Z,11.50
2023-03-29T18:03:01.318Z,11.40
2023-03-29T18:05:28.102Z,11.40
2023-03-29T18:07:55.224Z,11.40
2023-03-29T18:10:22.018Z,11.50
2023-03-29T18:12:48.693Z,11.40
2023-03-29T18:15:15.350Z,11.40
2023-03-29T18:17:42.062Z,11.40
2023-03-29T18:20:11.843Z,11.40
2023-03-29T18:22:39.418Z,11.40
2023-03-29T18:25:07.341Z,11.40
2023-03-29T18:27:33.974Z,11.40
2023-03-29T18:30:00.628Z,11.40
2023-03-29T18:32:27.343Z,11.40
2023-03-29T18:34:53.959Z,11.30
2023-03-29T18:37:20.886Z,11.40
2023-03-29T18:39:47.994Z,11.40
2023-03-29T18:42:14.810Z,11.40
2023-03-29T18:44:42.210Z,11.30
2023-03-29T18:47:09.067Z,11.40
2023-03-29T18:49:36.621Z,11.30
2023-03-29T18:52:04.663Z,11.30
2023-03-29T18:54:31.341Z,11.30
2023-03-29T18:56:59.258Z,11.40
2023-03-29T18:59:26.302Z,11.40
2023-03-29T19:01:53.082Z,11.30
2023-03-29T19:04:20.028Z,11.30
2023-03-29T19:06:47.430Z,11.30
2023-03-29T19:09:14.267Z,11.30
2023-03-29T19:11:40.922Z,11.30
2023-03-29T19:14:09.185Z,11.40
2023-03-29T19:16:36.102Z,11.40
2023-03-29T19:19:04.889Z,11.40
2023-03-29T19:21:32.265Z,11.40
2023-03-29T19:24:00.788Z,11.40
2023-03-29T19:26:28.672Z,11.40
2023-03-29T19:28:55.296Z,11.40
2023-03-29T19:31:22.499Z,11.40
2023-03-29T19:33:49.137Z,11.40
2023-03-29T19:36:15.742Z,11.40
2023-03-29T19:38:42.420Z,11.40
2023-03-29T19:41:09.002Z,11.40
2023-03-29T19:43:35.657Z,11.30
2023-03-29T19:46:07.784Z,11.30
2023-03-29T19:48:34.456Z,11.30
2023-03-29T19:51:02.710Z,11.30
2023-03-29T19:53:32.576Z,11.30
2023-03-29T19:55:59.605Z,11.20
2023-03-29T19:58:26.251Z,11.30
2023-03-29T20:00:54.505Z,11.20
2023-03-29T20:03:21.893Z,11.20
2023-03-29T20:05:48.733Z,11.20
2023-03-29T20:08:15.393Z,11.30
2023-03-29T20:10:42.455Z,11.30
2023-03-29T20:13:09.070Z,11.30
2023-03-29T20:15:35.896Z,11.30
2023-03-29T20:18:03.332Z,11.30
2023-03-29T20:20:30.054Z,11.30
2023-03-29T20:23:04.678Z,11.30
2023-03-29T20:25:34.635Z,11.30
2023-03-29T20:28:01.302Z,11.30
2023-03-29T20:30:28.096Z,11.30
2023-03-29T20:32:55.928Z,11.20
2023-03-29T20:35:22.692Z,11.30
2023-03-29T20:37:49.287Z,11.50
2023-03-29T20:40:15.998Z,11.30
2023-03-29T20:42:42.828Z,11.20
2023-03-29T20:45:18.161Z,11.30
2023-03-29T20:47:50.249Z,11.30
2023-03-29T20:50:18.639Z,11.30
2023-03-29T20:52:45.299Z,11.30
2023-03-29T20:55:12.891Z,11.20
2023-03-29T20:57:42.075Z,11.20
2023-03-29T21:00:11.850Z,11.20
2023-03-29T21:02:39.209Z,11.20
2023-03-29T21:05:06.536Z,11.20
2023-03-29T21:07:33.232Z,11.20
2023-03-29T21:10:01.085Z,11.20
2023-03-29T21:12:27.716Z,11.20
2023-03-29T21:14:55.096Z,11.20
2023-03-29T21:17:21.985Z,11.20
2023-03-29T21:19:48.619Z,11.20
2023-03-29T21:22:15.311Z,11.20
2023-03-29T21:24:41.919Z,11.20
2023-03-29T21:27:08.549Z,11.20
2023-03-29T21:29:35.349Z,11.20
2023-03-29T21:32:02.052Z,11.20
2023-03-29T21:34:28.700Z,11.20
2023-03-29T21:36:55.408Z,11.20
2023-03-29T21:39:24.802Z,11.20
2023-03-29T21:41:51.418Z,11.20
2023-03-29T21:44:18.075Z,11.20
2023-03-29T21:46:44.832Z,11.10
2023-03-29T21:49:11.618Z,11.10
2023-03-29T21:51:40.186Z,11.10
2023-03-29T21:54:06.811Z,11.10
2023-03-29T21:56:33.380Z,11.10
2023-03-29T21:59:00.152Z,11.10
2023-03-29T22:01:27.104Z,11.10
2023-03-29T22:03:53.772Z,11.20
2023-03-29T22:06:20.715Z,11.20
2023-03-29T22:08:49.465Z,11.20
2023-03-29T22:11:16.371Z,11.20
2023-03-29T22:13:43.687Z,11.20
2023-03-29T22:16:16.426Z,11.20
2023-03-29T22:18:43.195Z,11.20
2023-03-29T22:21:14.506Z,11.30
2023-03-29T22:23:42.219Z,11.30
2023-03-29T22:26:09.529Z,11.30
2023-03-29T22:28:39.113Z,11.20
2023-03-29T22:31:10.702Z,11.20
2023-03-29T22:33:37.343Z,11.20
2023-03-29T22:36:11.700Z,11.20
2023-03-29T22:38:38.732Z,11.20
2023-03-29T22:41:06.042Z,11.20
2023-03-29T22:43:32.926Z,11.20
2023-03-29T22:45:59.574Z,11.20
2023-03-29T22:48:26.588Z,11.20
2023-03-29T22:50:53.159Z,11.20
2023-03-29T22:53:19.751Z,11.20
2023-03-29T22:55:46.365Z,11.20
2023-03-29T22:58:12.988Z,11.30
2023-03-29T23:00:39.550Z,11.30
2023-03-29T23:03:06.724Z,11.20
2023-03-29T23:05:33.610Z,11.20
2023-03-29T23:08:00.544Z,11.20
2023-03-29T23:10:28.964Z,11.20
2023-03-29T23:13:08.423Z,11.20
2023-03-29T23:15:42.698Z,11.20
2023-03-29T23:18:09.492Z,11.20
2023-03-29T23:20:36.158Z,11.20
2023-03-29T23:23:02.783Z,11.20
2023-03-29T23:25:29.967Z,11.20
2023-03-29T23:27:56.650Z,11.20
2023-03-29T23:30:23.516Z,11.20
2023-03-29T23:32:50.687Z,11.10
2023-03-29T23:35:17.298Z,11.10
2023-03-29T23:37:44.822Z,11.10
2023-03-29T23:40:13.863Z,11.10
2023-03-29T23:42:41.146Z,11.10
2023-03-29T23:45:08.926Z,11.10
2023-03-29T23:47:36.678Z,11.10
2023-03-29T23:50:03.931Z,11.00
2023-03-29T23:52:32.693Z,11.10
2023-03-29T23:55:00.614Z,11.10
2023-03-29T23:57:28.213Z,11.00
2023-03-29T23:59:55.774Z,11.00
